createdAt,value
2018-10-21T00:01:32.984Z,82.50
2018-10-21T00:04:08.139Z,83.10
2018-10-21T00:06:43.371Z,83.30
2018-10-21T00:09:23.425Z,83.40
2018-10-21T00:11:57.873Z,83.60
2018-10-21T00:14:34.710Z,83.90
2018-10-21T00:17:17.931Z,83.90
2018-10-21T00:19:52.267Z,83.90
2018-10-21T00:22:27.328Z,84.20
2018-10-21T00:25:01.841Z,84.10
2018-10-21T00:27:36.832Z,84.10
2018-10-21T00:30:11.318Z,84.10
2018-10-21T00:32:47.858Z,83.90
2018-10-21T00:35:23.070Z,83.90
2018-10-21T00:37:57.608Z,84.10
2018-10-21T00:40:31.871Z,84.20
2018-10-21T00:43:06.897Z,84.30
2018-10-21T00:45:41.268Z,84.40
2018-10-21T00:48:16.239Z,84.50
2018-10-21T00:50:51.208Z,84.50
2018-10-21T00:53:30.261Z,85.10
2018-10-21T00:56:05.004Z,85.00
2018-10-21T00:58:40.286Z,85.60
2018-10-21T01:01:14.581Z,85.50
2018-10-21T01:03:54.913Z,85.50
2018-10-21T01:06:30.218Z,85.70
2018-10-21T01:09:08.553Z,85.60
2018-10-21T01:11:43.449Z,85.70
2018-10-21T01:14:18.578Z,85.90
2018-10-21T01:16:53.360Z,85.90
2018-10-21T01:19:28.395Z,86.40
2018-10-21T01:22:03.435Z,86.80
2018-10-21T01:24:37.980Z,87.10
2018-10-21T01:27:12.609Z,87.50
2018-10-21T01:29:47.567Z,87.70
2018-10-21T01:32:22.088Z,87.90
2018-10-21T01:34:57.391Z,88.10
2018-10-21T01:37:31.640Z,88.20
2018-10-21T01:40:40.232Z,88.20
2018-10-21T01:43:15.757Z,88.40
2018-10-21T01:45:50.358Z,88.90
2018-10-21T01:48:26.494Z,88.90
2018-10-21T01:51:01.615Z,88.90
2018-10-21T01:53:37.035Z,89.40
2018-10-21T01:56:11.548Z,90.10
2018-10-21T01:58:46.604Z,89.60
2018-10-21T02:01:21.100Z,89.70
2018-10-21T02:03:55.970Z,89.80
2018-10-21T02:06:30.880Z,89.90
2018-10-21T02:09:06.813Z,89.80
2018-10-21T02:11:41.696Z,89.90
2018-10-21T02:14:16.165Z,90.00
2018-10-21T02:16:51.119Z,89.90
2018-10-21T02:19:30.067Z,90.10
2018-10-21T02:22:04.493Z,90.10
2018-10-21T02:24:39.037Z,90.10
2018-10-21T02:27:13.804Z,90.10
2018-10-21T02:29:48.164Z,90.30
2018-10-21T02:32:22.565Z,90.30
2018-10-21T02:34:57.454Z,90.30
2018-10-21T02:37:31.965Z,90.30
2018-10-21T02:40:13.432Z,90.30
2018-10-21T02:42:48.667Z,90.30
2018-10-21T02:45:23.175Z,90.40
2018-10-21T02:47:58.066Z,90.30
2018-10-21T02:50:33.460Z,90.20
2018-10-21T02:53:08.320Z,90.10
2018-10-21T02:55:44.047Z,90.00
2018-10-21T02:58:18.468Z,89.80
2018-10-21T03:00:53.677Z,89.30
2018-10-21T03:03:27.990Z,89.20
2018-10-21T03:06:07.864Z,89.00
2018-10-21T03:08:42.992Z,89.00
2018-10-21T03:11:17.432Z,89.30
2018-10-21T03:13:51.983Z,89.70
2018-10-21T03:16:26.947Z,90.00
2018-10-21T03:19:02.005Z,89.90
2018-10-21T03:21:36.860Z,89.70
2018-10-21T03:24:11.357Z,90.00
2018-10-21T03:26:46.299Z,90.00
2018-10-21T03:29:20.740Z,90.10
2018-10-21T03:31:55.380Z,90.10
2018-10-21T03:34:29.761Z,90.00
2018-10-21T03:37:04.597Z,90.10
2018-10-21T03:39:39.560Z,90.30
2018-10-21T03:42:14.508Z,90.40
2018-10-21T03:44:48.948Z,90.40
2018-10-21T03:47:23.347Z,90.50
2018-10-21T03:49:58.171Z,90.40
2018-10-21T03:52:33.322Z,90.40
2018-10-21T03:55:08.452Z,90.40
2018-10-21T03:57:43.315Z,90.50
2018-10-21T04:00:18.291Z,90.60
2018-10-21T04:02:53.088Z,90.60
2018-10-21T04:05:28.176Z,90.60
2018-10-21T04:08:03.632Z,90.60
2018-10-21T04:10:38.183Z,90.60
2018-10-21T04:13:13.404Z,90.50
2018-10-21T04:15:48.380Z,90.50
2018-10-21T04:18:23.296Z,90.30
2018-10-21T04:20:58.297Z,90.40
2018-10-21T04:23:32.815Z,90.40
2018-10-21T04:26:07.436Z,90.30
2018-10-21T04:28:41.948Z,90.30
2018-10-21T04:31:16.925Z,90.10
2018-10-21T04:33:51.462Z,90.00
2018-10-21T04:36:29.678Z,89.90
2018-10-21T04:39:42.573Z,89.70
2018-10-21T04:42:17.703Z,89.50
2018-10-21T04:44:52.135Z,89.90
2018-10-21T04:47:26.715Z,89.90
2018-10-21T04:50:01.996Z,89.80
2018-10-21T04:52:37.315Z,89.80
2018-10-21T04:55:20.655Z,89.60
2018-10-21T04:57:55.140Z,89.70
2018-10-21T05:00:29.935Z,90.00
2018-10-21T05:03:04.533Z,90.00
2018-10-21T05:05:38.947Z,90.10
2018-10-21T05:08:13.996Z,90.20
2018-10-21T05:10:49.093Z,90.30
2018-10-21T05:13:23.472Z,90.30
2018-10-21T05:15:59.049Z,90.20
2018-10-21T05:18:34.186Z,90.30
2018-10-21T05:21:08.832Z,90.30
2018-10-21T05:23:43.650Z,90.30
2018-10-21T05:26:18.198Z,90.40
2018-10-21T05:28:53.275Z,90.50
2018-10-21T05:31:27.779Z,90.70
2018-10-21T05:34:02.563Z,90.70
2018-10-21T05:36:37.579Z,90.80
2018-10-21T05:39:12.599Z,90.80
2018-10-21T05:41:47.407Z,90.80
2018-10-21T05:44:21.724Z,90.80
2018-10-21T05:46:56.149Z,90.80
2018-10-21T05:49:31.583Z,90.80
2018-10-21T05:52:06.229Z,91.00
2018-10-21T05:54:41.928Z,91.00
2018-10-21T05:57:17.419Z,91.00
2018-10-21T05:59:52.479Z,91.20
2018-10-21T06:02:27.699Z,91.30
2018-10-21T06:05:02.095Z,91.30
2018-10-21T06:07:37.243Z,91.40
2018-10-21T06:10:12.124Z,91.40
2018-10-21T06:12:46.543Z,91.30
2018-10-21T06:15:21.652Z,91.30
2018-10-21T06:17:56.673Z,91.40
2018-10-21T06:20:48.615Z,91.30
2018-10-21T06:23:23.002Z,91.30
2018-10-21T06:26:00.500Z,91.30
2018-10-21T06:28:34.879Z,91.40
2018-10-21T06:31:09.286Z,91.30
2018-10-21T06:33:44.259Z,91.30
2018-10-21T06:36:18.586Z,91.10
2018-10-21T06:38:53.566Z,91.00
2018-10-21T06:41:28.519Z,90.80
2018-10-21T06:44:03.072Z,90.60
2018-10-21T06:46:38.088Z,90.60
2018-10-21T06:49:12.909Z,90.80
2018-10-21T06:51:48.215Z,90.50
2018-10-21T06:54:23.551Z,90.50
2018-10-21T06:56:58.960Z,90.30
2018-10-21T06:59:33.859Z,90.40
2018-10-21T07:02:08.712Z,90.50
2018-10-21T07:04:43.155Z,90.50
2018-10-21T07:07:17.831Z,90.60
2018-10-21T07:09:52.251Z,90.50
2018-10-21T07:12:26.788Z,90.40
2018-10-21T07:15:02.052Z,90.60
2018-10-21T07:17:37.187Z,90.50
2018-10-21T07:20:12.284Z,90.30
2018-10-21T07:22:46.685Z,90.30
2018-10-21T07:25:21.042Z,90.20
2018-10-21T07:27:55.973Z,90.00
2018-10-21T07:30:36.449Z,90.00
2018-10-21T07:33:11.419Z,90.00
2018-10-21T07:35:45.644Z,88.90
2018-10-21T07:38:20.512Z,88.90
2018-10-21T07:40:55.828Z,89.50
2018-10-21T07:43:30.293Z,88.40
2018-10-21T07:46:05.674Z,88.00
2018-10-21T07:48:40.772Z,87.20
2018-10-21T07:51:15.074Z,86.20
2018-10-21T07:53:50.501Z,85.40
2018-10-21T07:56:25.909Z,85.40
2018-10-21T07:59:00.644Z,83.90
2018-10-21T08:01:35.576Z,83.40
2018-10-21T08:04:10.573Z,82.10
2018-10-21T08:08:58.943Z,81.50
2018-10-21T08:11:33.606Z,81.50
2018-10-21T08:14:09.170Z,80.80
2018-10-21T08:16:44.203Z,80.30
2018-10-21T08:19:19.520Z,78.50
2018-10-21T08:21:53.931Z,78.60
2018-10-21T08:24:28.514Z,78.10
2018-10-21T08:27:03.032Z,77.70
2018-10-21T08:29:38.115Z,76.60
2018-10-21T08:32:12.440Z,75.30
2018-10-21T08:34:47.326Z,75.60
2018-10-21T08:37:29.548Z,73.90
2018-10-21T08:40:04.706Z,73.50
2018-10-21T08:42:39.247Z,73.00
2018-10-21T08:45:29.588Z,72.20
2018-10-21T08:48:03.929Z,71.60
2018-10-21T08:50:38.260Z,70.70
2018-10-21T08:53:13.246Z,70.50
2018-10-21T08:55:48.486Z,70.30
2018-10-21T08:58:23.693Z,69.70
2018-10-21T09:00:58.786Z,70.20
2018-10-21T09:03:33.293Z,69.80
2018-10-21T09:06:16.684Z,69.30
2018-10-21T09:08:51.312Z,69.20
2018-10-21T09:11:26.267Z,69.40
2018-10-21T09:14:00.732Z,70.20
2018-10-21T09:16:36.351Z,71.10
2018-10-21T09:19:11.763Z,71.40
2018-10-21T09:21:46.134Z,71.90
2018-10-21T09:24:20.771Z,72.60
2018-10-21T09:27:00.790Z,73.70
2018-10-21T09:29:37.143Z,73.90
2018-10-21T09:32:16.165Z,73.80
2018-10-21T09:34:50.676Z,74.00
2018-10-21T09:37:25.733Z,74.70
2018-10-21T09:40:03.320Z,76.10
2018-10-21T09:42:46.658Z,75.80
2018-10-21T09:45:22.660Z,75.40
2018-10-21T09:47:58.219Z,75.20
2018-10-21T09:50:32.915Z,76.40
2018-10-21T09:53:07.255Z,76.00
2018-10-21T09:55:42.439Z,73.70
2018-10-21T09:58:19.527Z,73.00
2018-10-21T10:01:00.016Z,72.60
2018-10-21T10:03:34.656Z,72.10
2018-10-21T10:06:19.704Z,72.80
2018-10-21T10:08:54.157Z,72.00
2018-10-21T10:11:28.584Z,70.80
2018-10-21T10:14:03.556Z,71.00
2018-10-21T10:16:39.106Z,71.10
2018-10-21T10:19:14.275Z,70.50
2018-10-21T10:21:48.677Z,69.50
2018-10-21T10:24:23.512Z,68.90
2018-10-21T10:26:57.840Z,68.90
2018-10-21T10:29:32.388Z,69.10
2018-10-21T10:32:06.833Z,68.70
2018-10-21T10:34:41.119Z,68.80
2018-10-21T10:37:16.274Z,69.30
2018-10-21T10:39:50.512Z,69.90
2018-10-21T10:42:25.099Z,69.90
2018-10-21T10:45:00.244Z,69.70
2018-10-21T10:47:42.136Z,68.90
2018-10-21T10:50:17.426Z,68.20
2018-10-21T10:52:52.094Z,67.20
2018-10-21T10:55:34.527Z,66.40
2018-10-21T10:58:10.086Z,66.40
2018-10-21T11:00:46.983Z,66.80
2018-10-21T11:03:21.373Z,67.00
2018-10-21T11:05:56.532Z,66.70
2018-10-21T11:08:32.216Z,66.50
2018-10-21T11:11:07.424Z,66.40
2018-10-21T11:16:29.534Z,66.00
2018-10-21T11:19:05.332Z,63.40
2018-10-21T11:21:42.400Z,56.40
2018-10-21T11:24:17.711Z,49.60
2018-10-21T11:26:53.039Z,41.70
2018-10-21T11:29:28.759Z,39.20
2018-10-21T11:32:04.259Z,39.40
2018-10-21T11:34:39.494Z,39.70
2018-10-21T11:37:15.363Z,40.40
2018-10-21T11:39:51.055Z,41.10
2018-10-21T11:42:25.445Z,43.10
2018-10-21T11:45:00.436Z,44.10
2018-10-21T11:47:36.239Z,45.50
2018-10-21T11:50:12.012Z,46.30
2018-10-21T11:52:47.037Z,45.80
2018-10-21T11:55:25.521Z,46.40
2018-10-21T11:58:00.326Z,46.50
2018-10-21T12:00:35.184Z,46.40
2018-10-21T12:03:11.535Z,45.30
2018-10-21T12:05:47.116Z,45.40
2018-10-21T12:08:22.544Z,46.60
2018-10-21T12:14:25.867Z,47.50
2018-10-21T12:17:28.914Z,47.30
2018-10-21T12:20:04.252Z,48.00
2018-10-21T12:22:38.800Z,48.70
2018-10-21T12:25:13.407Z,48.10
2018-10-21T12:27:47.765Z,47.60
2018-10-21T12:30:22.964Z,46.90
2018-10-21T12:32:58.036Z,46.50
2018-10-21T12:35:33.008Z,46.90
2018-10-21T12:38:07.972Z,46.20
2018-10-21T12:50:10.909Z,43.70
2018-10-21T12:52:46.163Z,43.70
2018-10-21T12:55:21.231Z,42.70
2018-10-21T12:57:55.565Z,43.30
2018-10-21T13:00:30.447Z,42.80
2018-10-21T13:03:04.912Z,43.20
2018-10-21T13:05:39.901Z,44.00
2018-10-21T13:08:19.698Z,44.30
2018-10-21T13:10:54.099Z,44.80
2018-10-21T13:13:29.170Z,45.10
2018-10-21T13:16:04.157Z,45.00
2018-10-21T13:18:40.117Z,46.10
2018-10-21T13:21:15.446Z,44.80
2018-10-21T13:23:50.917Z,43.80
2018-10-21T13:26:25.591Z,42.70
2018-10-21T13:29:00.247Z,42.30
2018-10-21T13:31:35.456Z,41.80
2018-10-21T13:34:10.621Z,41.90
2018-10-21T13:36:45.563Z,41.90
2018-10-21T13:39:20.840Z,42.10
2018-10-21T13:41:55.345Z,42.20
2018-10-21T13:44:30.357Z,42.60
2018-10-21T13:47:05.477Z,42.70
2018-10-21T13:49:43.992Z,43.20
2018-10-21T13:52:19.083Z,43.70
2018-10-21T13:54:54.789Z,43.50
2018-10-21T13:57:31.511Z,43.00
2018-10-21T14:00:07.035Z,42.80
2018-10-21T14:02:41.657Z,43.10
2018-10-21T14:05:17.179Z,43.50
2018-10-21T14:07:52.359Z,43.90
2018-10-21T14:10:27.196Z,44.80
2018-10-21T14:13:03.318Z,44.40
2018-10-21T14:15:39.550Z,44.10
2018-10-21T14:18:14.889Z,44.60
2018-10-21T14:20:49.795Z,44.50
2018-10-21T14:23:25.586Z,44.50
2018-10-21T14:26:00.611Z,44.20
2018-10-21T14:28:36.142Z,44.00
2018-10-21T14:31:11.632Z,44.00
2018-10-21T14:33:46.560Z,44.30
2018-10-21T14:36:23.142Z,44.00
2018-10-21T14:38:58.104Z,44.20
2018-10-21T14:41:32.918Z,43.50
2018-10-21T14:44:07.812Z,43.10
2018-10-21T14:46:43.875Z,42.50
2018-10-21T14:49:19.207Z,43.10
2018-10-21T14:51:54.367Z,43.40
2018-10-21T14:54:29.591Z,43.00
2018-10-21T14:57:04.791Z,42.30
2018-10-21T14:59:39.073Z,42.30
2018-10-21T15:02:13.767Z,42.00
2018-10-21T15:04:48.381Z,42.30
2018-10-21T15:07:23.460Z,42.90
2018-10-21T15:09:57.862Z,43.20
2018-10-21T15:12:33.156Z,43.60
2018-10-21T15:15:09.568Z,43.80
2018-10-21T15:17:45.931Z,44.00
2018-10-21T15:20:21.319Z,44.00
2018-10-21T15:23:04.470Z,44.00
2018-10-21T15:25:38.856Z,44.10
2018-10-21T15:28:14.050Z,44.30
2018-10-21T15:30:48.845Z,44.40
2018-10-21T15:33:23.248Z,44.40
2018-10-21T15:35:58.165Z,44.20
2018-10-21T15:38:33.112Z,44.10
2018-10-21T15:41:08.593Z,44.40
2018-10-21T15:43:42.972Z,44.60
2018-10-21T15:46:18.213Z,45.50
2018-10-21T15:48:53.206Z,45.90
2018-10-21T15:51:28.216Z,46.20
2018-10-21T15:54:03.534Z,46.60
2018-10-21T15:56:37.983Z,47.00
2018-10-21T15:59:12.804Z,47.30
2018-10-21T16:01:47.149Z,47.30
2018-10-21T16:04:21.808Z,48.10
2018-10-21T16:06:57.575Z,48.40
2018-10-21T16:09:32.492Z,48.40
2018-10-21T16:12:07.035Z,48.60
2018-10-21T16:14:42.364Z,48.90
2018-10-21T16:17:19.324Z,49.10
2018-10-21T16:19:54.424Z,49.30
2018-10-21T16:22:29.500Z,49.60
2018-10-21T16:25:04.932Z,50.00
2018-10-21T16:27:39.299Z,49.90
2018-10-21T16:30:15.942Z,50.30
2018-10-21T16:32:50.523Z,50.60
2018-10-21T16:35:24.864Z,50.70
2018-10-21T16:38:00.042Z,51.00
2018-10-21T16:40:34.573Z,51.20
2018-10-21T16:43:08.876Z,51.60
2018-10-21T16:45:44.096Z,51.90
2018-10-21T16:48:20.068Z,52.20
2018-10-21T16:50:55.346Z,52.40
2018-10-21T16:53:29.773Z,52.70
2018-10-21T16:56:04.737Z,53.00
2018-10-21T16:58:42.624Z,53.10
2018-10-21T17:01:18.185Z,53.40
2018-10-21T17:03:52.733Z,53.60
2018-10-21T17:09:23.800Z,54.10
2018-10-21T17:11:58.128Z,54.30
2018-10-21T17:14:38.740Z,54.50
2018-10-21T17:17:18.920Z,54.70
2018-10-21T17:19:54.178Z,55.00
2018-10-21T17:22:28.635Z,55.10
2018-10-21T17:25:05.144Z,55.40
2018-10-21T17:27:39.504Z,55.70
2018-10-21T17:30:17.250Z,56.00
2018-10-21T17:32:53.638Z,56.10
2018-10-21T17:35:28.239Z,56.30
2018-10-21T17:38:04.459Z,56.40
2018-10-21T17:40:39.339Z,56.30
2018-10-21T17:43:13.740Z,57.00
2018-10-21T17:45:58.618Z,57.40
2018-10-21T17:48:35.256Z,57.60
2018-10-21T17:51:12.100Z,57.80
2018-10-21T17:53:54.990Z,58.40
2018-10-21T17:56:29.587Z,58.50
2018-10-21T17:59:04.261Z,58.80
2018-10-21T18:01:40.582Z,58.80
2018-10-21T18:04:15.213Z,59.20
2018-10-21T18:06:52.803Z,59.20
2018-10-21T18:09:30.033Z,59.40
2018-10-21T18:12:04.572Z,59.60
2018-10-21T18:14:41.435Z,59.80
2018-10-21T18:17:21.028Z,60.00
2018-10-21T18:19:56.500Z,60.30
2018-10-21T18:22:30.824Z,60.50
2018-10-21T18:25:08.000Z,60.70
2018-10-21T18:27:44.287Z,60.70
2018-10-21T18:33:01.927Z,61.20
2018-10-21T18:35:36.367Z,61.20
2018-10-21T18:38:12.712Z,61.60
2018-10-21T18:40:47.713Z,62.00
2018-10-21T18:43:22.255Z,62.00
2018-10-21T18:45:59.843Z,62.60
2018-10-21T18:48:36.784Z,62.90
2018-10-21T18:51:11.498Z,63.10
2018-10-21T18:53:56.527Z,63.00
2018-10-21T18:56:31.605Z,63.10
2018-10-21T19:04:35.891Z,64.00
2018-10-21T19:07:12.529Z,64.30
2018-10-21T19:09:49.140Z,64.40
2018-10-21T19:12:23.679Z,64.50
2018-10-21T19:15:01.138Z,64.30
2018-10-21T19:17:38.363Z,64.40
2018-10-21T19:20:16.880Z,64.30
2018-10-21T19:22:51.490Z,64.40
2018-10-21T19:25:28.143Z,64.40
2018-10-21T19:28:02.995Z,64.40
2018-10-21T19:30:38.804Z,64.50
2018-10-21T19:33:14.017Z,64.60
2018-10-21T19:35:48.924Z,64.60
2018-10-21T19:38:24.876Z,64.90
2018-10-21T19:41:00.538Z,64.90
2018-10-21T19:43:35.015Z,64.90
2018-10-21T19:46:11.456Z,65.10
2018-10-21T19:48:46.995Z,65.20
2018-10-21T19:51:21.488Z,65.40
2018-10-21T19:53:57.874Z,65.70
2018-10-21T19:56:33.279Z,65.90
2018-10-21T19:59:07.679Z,66.00
2018-10-21T20:01:42.885Z,66.20
2018-10-21T20:04:17.378Z,66.30
2018-10-21T20:06:52.348Z,66.20
2018-10-21T20:09:27.660Z,66.30
2018-10-21T20:12:02.189Z,66.40
2018-10-21T20:14:40.228Z,66.70
2018-10-21T20:17:14.748Z,66.80
2018-10-21T20:19:49.744Z,66.90
2018-10-21T20:22:24.255Z,66.90
2018-10-21T20:24:59.229Z,67.10
2018-10-21T20:27:34.429Z,67.10
2018-10-21T20:30:10.449Z,67.20
2018-10-21T20:32:44.834Z,67.50
2018-10-21T20:35:20.219Z,68.30
2018-10-21T20:37:55.575Z,67.80
2018-10-21T20:40:30.130Z,68.10
2018-10-21T20:43:04.978Z,68.30
2018-10-21T20:45:40.215Z,69.00
2018-10-21T20:48:20.898Z,69.30
2018-10-21T20:50:55.248Z,69.30
2018-10-21T20:53:30.341Z,69.20
2018-10-21T20:56:05.447Z,69.50
2018-10-21T20:58:40.483Z,69.60
2018-10-21T21:01:14.824Z,69.50
2018-10-21T21:03:50.284Z,69.50
2018-10-21T21:06:24.740Z,69.90
2018-10-21T21:09:00.497Z,70.00
2018-10-21T21:11:36.048Z,70.40
2018-10-21T21:14:10.636Z,70.40
2018-10-21T21:16:45.603Z,70.40
2018-10-21T21:19:20.560Z,70.60
2018-10-21T21:21:55.119Z,70.90
2018-10-21T21:24:30.324Z,71.00
2018-10-21T21:27:04.957Z,71.20
2018-10-21T21:29:45.983Z,71.20
2018-10-21T21:32:20.448Z,71.50
2018-10-21T21:34:54.960Z,71.80
2018-10-21T21:37:30.152Z,71.90
2018-10-21T21:40:06.171Z,72.10
2018-10-21T21:42:40.640Z,72.10
2018-10-21T21:45:15.520Z,72.30
2018-10-21T21:47:49.972Z,72.50
2018-10-21T21:50:25.022Z,72.60
2018-10-21T21:52:59.448Z,72.80
2018-10-21T21:55:34.547Z,73.10
2018-10-21T21:58:09.659Z,73.30
2018-10-21T22:00:44.165Z,73.40
2018-10-21T22:03:19.270Z,73.60
2018-10-21T22:05:53.692Z,73.90
2018-10-21T22:08:29.380Z,74.00
2018-10-21T22:11:04.445Z,74.20
2018-10-21T22:13:38.876Z,74.10
2018-10-21T22:16:14.110Z,74.20
2018-10-21T22:18:49.204Z,74.60
2018-10-21T22:21:23.769Z,74.80
2018-10-21T22:23:58.725Z,74.90
2018-10-21T22:26:33.719Z,74.90
2018-10-21T22:29:08.283Z,75.30
2018-10-21T22:31:43.209Z,75.30
2018-10-21T22:34:17.827Z,75.60
2018-10-21T22:36:52.720Z,75.50
2018-10-21T22:39:27.895Z,75.70
2018-10-21T22:42:02.426Z,75.80
2018-10-21T22:44:37.606Z,75.80
2018-10-21T22:47:12.116Z,76.00
2018-10-21T22:49:47.079Z,76.50
2018-10-21T22:52:21.583Z,76.60
2018-10-21T22:54:56.436Z,76.50
2018-10-21T22:57:31.600Z,76.50
2018-10-21T23:00:07.732Z,77.00
2018-10-21T23:02:42.764Z,77.10
2018-10-21T23:05:17.792Z,77.10
2018-10-21T23:07:52.635Z,77.10
2018-10-21T23:10:27.655Z,77.30
2018-10-21T23:13:01.942Z,77.60
2018-10-21T23:15:36.932Z,77.50
2018-10-21T23:18:12.439Z,78.00
2018-10-21T23:20:46.736Z,78.00
2018-10-21T23:23:21.279Z,77.90
2018-10-21T23:25:56.137Z,78.00
2018-10-21T23:28:30.680Z,78.10
2018-10-21T23:31:06.044Z,78.10
2018-10-21T23:33:40.500Z,78.10
2018-10-21T23:36:15.014Z,78.00
2018-10-21T23:38:50.175Z,78.50
2018-10-21T23:41:25.164Z,78.60
2018-10-21T23:43:59.836Z,78.50
2018-10-21T23:46:34.875Z,78.70
2018-10-21T23:49:10.050Z,78.90
2018-10-21T23:51:44.504Z,78.60
2018-10-21T23:54:19.775Z,79.50
2018-10-21T23:56:55.660Z,80.20
2018-10-21T23:59:30.664Z,80.20
